Time;durP1;ratioP1;P1;durP2;ratioP2;P2;SDS_P1;SDS_P2;PMS_P1;PMS_P2;Temp;Humidity;BMP_temperature;BMP_pressure;BME280_temperature;BME280_humidity;BME280_pressure;Samples;Min_cycle;Max_cycle;Signal;HPM_P1;HPM_P2
2022/11/28 00:01:22;;;;;;;10.48;8.80;;;;;;;3.35;100.00;95650.13;5067558;28;24439;-70
2022/11/28 00:03:50;;;;;;;9.65;8.65;;;;;;;3.35;100.00;95651.88;5067681;28;24800;-70
2022/11/28 00:06:17;;;;;;;10.27;8.38;;;;;;;3.38;100.00;95656.88;5065497;28;24431;-70
2022/11/28 00:08:44;;;;;;;13.40;7.97;;;;;;;3.47;100.00;95648.84;5064031;28;24446;-70
2022/11/28 00:11:13;;;;;;;9.65;8.25;;;;;;;3.49;100.00;95649.66;5063458;28;24435;-70
2022/11/28 00:13:41;;;;;;;8.23;7.30;;;;;;;3.55;100.00;95649.41;5067502;28;24431;-71
2022/11/28 00:16:09;;;;;;;10.40;7.63;;;;;;;3.58;100.00;95640.78;5063724;28;24435;-71
2022/11/28 00:18:36;;;;;;;9.25;7.70;;;;;;;3.48;100.00;95642.00;5060328;28;24442;-71
2022/11/28 00:21:06;;;;;;;10.02;7.70;;;;;;;3.43;100.00;95639.63;5070702;28;24446;-72
2022/11/28 00:23:34;;;;;;;9.48;7.40;;;;;;;3.51;100.00;95631.66;5064162;28;24427;-72
2022/11/28 00:26:02;;;;;;;9.38;7.43;;;;;;;3.49;100.00;95634.28;5063948;28;24517;-71
2022/11/28 00:28:29;;;;;;;9.23;7.80;;;;;;;3.47;100.00;95633.50;5071020;28;24813;-72
2022/11/28 00:30:55;;;;;;;8.60;7.07;;;;;;;3.43;100.00;95626.00;5070403;28;24447;-72
2022/11/28 00:33:22;;;;;;;11.65;7.38;;;;;;;3.41;100.00;95631.16;5064050;28;24802;-72
2022/11/28 00:35:48;;;;;;;9.07;7.68;;;;;;;3.40;100.00;95625.19;5063959;28;24434;-72
2022/11/28 00:38:16;;;;;;;13.27;9.18;;;;;;;3.40;100.00;95627.75;5069804;28;24458;-71
2022/11/28 00:40:43;;;;;;;16.60;10.90;;;;;;;3.43;100.00;95623.44;5068172;28;24438;-72
2022/11/28 00:43:10;;;;;;;18.93;13.83;;;;;;;3.38;100.00;95621.03;5063669;28;25019;-72
2022/11/28 00:45:37;;;;;;;18.23;13.55;;;;;;;3.38;100.00;95613.38;5060249;28;24435;-72
2022/11/28 00:48:04;;;;;;;13.55;9.68;;;;;;;3.37;100.00;95616.78;5068468;28;25010;-72
2022/11/28 00:50:31;;;;;;;10.20;8.48;;;;;;;3.39;100.00;95612.47;5071155;28;24808;-72
2022/11/28 00:52:57;;;;;;;11.73;8.82;;;;;;;3.40;100.00;95614.13;5064761;28;24442;-72
2022/11/28 00:55:25;;;;;;;9.90;8.10;;;;;;;3.41;100.00;95602.97;5059401;28;24438;-72
2022/11/28 00:57:54;;;;;;;9.40;7.80;;;;;;;3.42;100.00;95591.03;5065630;28;24482;-71
2022/11/28 01:00:21;;;;;;;8.98;8.05;;;;;;;3.42;100.00;95593.59;5067495;28;25042;-71
2022/11/28 01:02:47;;;;;;;9.10;7.78;;;;;;;3.42;100.00;95588.47;5065632;28;24435;-71
2022/11/28 01:05:14;;;;;;;9.57;8.15;;;;;;;3.34;100.00;95599.00;5061351;28;24438;-71
2022/11/28 01:07:41;;;;;;;9.40;7.50;;;;;;;3.35;100.00;95598.13;5065673;28;24538;-72
2022/11/28 01:10:10;;;;;;;10.50;7.80;;;;;;;3.30;100.00;95600.84;5071287;28;24442;-70
2022/11/28 01:12:38;;;;;;;11.20;7.53;;;;;;;3.26;100.00;95598.44;5063541;28;24441;-70
2022/11/28 01:15:06;;;;;;;11.20;8.45;;;;;;;3.21;100.00;95595.22;5060779;28;24442;-70
2022/11/28 01:17:33;;;;;;;12.50;10.98;;;;;;;3.27;100.00;95600.13;5060195;28;24431;-70
2022/11/28 01:19:59;;;;;;;7.60;6.90;;;;;;;3.15;100.00;95602.25;5067590;28;24431;-71
2022/11/28 01:22:26;;;;;;;10.27;7.43;;;;;;;3.17;100.00;95606.47;5066243;28;25015;-70
2022/11/28 01:24:53;;;;;;;17.25;12.27;;;;;;;3.10;100.00;95601.56;5067753;28;24439;-70
2022/11/28 01:27:19;;;;;;;46.45;23.08;;;;;;;3.03;100.00;95591.59;5065049;28;24441;-70
2022/11/28 01:29:47;;;;;;;61.75;29.50;;;;;;;3.01;100.00;95581.44;5058958;28;25015;-70
2022/11/28 01:32:14;;;;;;;55.58;27.30;;;;;;;3.10;100.00;95588.75;5065552;28;24903;-71
2022/11/28 01:34:41;;;;;;;40.95;22.05;;;;;;;3.11;100.00;95595.53;5067374;28;24442;-70
2022/11/28 01:37:07;;;;;;;17.07;11.20;;;;;;;3.10;100.00;95596.44;5065611;28;25443;-70
2022/11/28 01:39:34;;;;;;;10.48;8.38;;;;;;;2.98;100.00;95591.78;5065594;28;24442;-70
2022/11/28 01:42:01;;;;;;;9.63;7.85;;;;;;;2.94;100.00;95586.84;5064146;28;24446;-71
2022/11/28 01:45:11;;;;;;;10.85;7.38;;;;;;;3.01;100.00;95588.28;5066408;28;25042;-71
2022/11/28 01:47:38;;;;;;;10.15;7.43;;;;;;;2.98;100.00;95578.16;5062527;28;24588;-71
2022/11/28 01:50:07;;;;;;;9.90;7.63;;;;;;;3.00;100.00;95571.25;5063431;28;24442;-71
2022/11/28 01:52:36;;;;;;;10.27;7.57;;;;;;;3.06;100.00;95563.34;5065431;28;25016;-71
2022/11/28 01:55:04;;;;;;;9.23;6.70;;;;;;;3.09;100.00;95560.69;5069675;28;24438;-70
2022/11/28 01:57:31;;;;;;;7.35;6.30;;;;;;;3.09;100.00;95550.44;5059931;28;24434;-70
2022/11/28 02:00:04;;;;;;;7.80;6.72;;;;;;;3.16;100.00;95549.34;5063948;28;24439;-70
2022/11/28 02:02:36;;;;;;;8.38;7.05;;;;;;;3.25;100.00;95546.41;5064759;28;24446;-71
2022/11/28 02:05:03;;;;;;;7.32;6.53;;;;;;;3.33;100.00;95538.44;5060627;28;24434;-71
2022/11/28 02:07:30;;;;;;;7.63;6.30;;;;;;;3.32;100.00;95542.75;5060704;28;24465;-71
2022/11/28 02:09:57;;;;;;;8.27;6.57;;;;;;;3.27;100.00;95544.66;5069448;28;24434;-70
2022/11/28 02:12:35;;;;;;;10.10;7.82;;;;;;;3.24;100.00;95543.94;5059373;28;24438;-70
2022/11/28 02:15:20;;;;;;;8.88;6.97;;;;;;;3.14;100.00;95541.69;5060410;28;24435;-72
2022/11/28 02:18:06;;;;;;;8.95;7.18;;;;;;;3.12;100.00;95535.00;5061933;28;24441;-72
2022/11/28 02:21:02;;;;;;;9.95;7.20;;;;;;;3.04;100.00;95525.03;5066204;28;25103;-70
2022/11/28 02:23:44;;;;;;;8.63;6.78;;;;;;;3.03;100.00;95541.25;5066355;28;24501;-70
2022/11/28 02:26:40;;;;;;;10.98;7.95;;;;;;;3.07;100.00;95534.31;5063193;28;24442;-70
2022/11/28 02:29:42;;;;;;;7.68;6.65;;;;;;;3.07;100.00;95532.59;5056410;28;24554;-70
2022/11/28 02:32:21;;;;;;;10.02;6.50;;;;;;;3.14;100.00;95523.78;5060747;28;24437;-70
2022/11/28 02:34:57;;;;;;;10.73;6.82;;;;;;;3.07;100.00;95519.78;5058945;28;24443;-70
2022/11/28 02:37:29;;;;;;;10.60;7.30;;;;;;;3.08;100.00;95510.41;5069545;28;24441;-71
2022/11/28 02:40:06;;;;;;;7.03;6.22;;;;;;;3.18;100.00;95514.28;5061550;28;24435;-70
2022/11/28 02:42:46;;;;;;;8.65;6.68;;;;;;;3.17;100.00;95506.66;5056247;28;24438;-70
2022/11/28 02:45:19;;;;;;;11.15;6.78;;;;;;;3.13;100.00;95511.91;5062175;28;24437;-71
2022/11/28 02:47:54;;;;;;;9.68;7.05;;;;;;;3.15;100.00;95507.56;5060642;28;24451;-70
2022/11/28 02:50:26;;;;;;;9.15;6.32;;;;;;;3.08;100.00;95510.41;5062794;28;24438;-70
2022/11/28 02:52:56;;;;;;;8.57;6.70;;;;;;;3.03;100.00;95502.88;5066243;28;24450;-70
2022/11/28 02:55:23;;;;;;;7.63;6.63;;;;;;;2.95;100.00;95511.75;5068739;28;24992;-71
2022/11/28 02:57:53;;;;;;;8.32;6.22;;;;;;;2.91;100.00;95518.69;5068249;28;24469;-70
2022/11/28 03:00:29;;;;;;;7.88;6.38;;;;;;;2.89;100.00;95493.19;5063501;28;24447;-71
2022/11/28 03:03:10;;;;;;;8.15;6.93;;;;;;;2.88;100.00;95498.34;5061112;28;24856;-72
2022/11/28 03:05:44;;;;;;;11.67;6.60;;;;;;;2.92;100.00;95499.91;5066218;28;25002;-72
2022/11/28 03:08:24;;;;;;;7.50;6.30;;;;;;;2.93;100.00;95501.59;5067144;28;24499;-71
2022/11/28 03:10:58;;;;;;;7.78;6.03;;;;;;;2.97;100.00;95494.63;5064558;28;24801;-71
2022/11/28 03:13:36;;;;;;;8.23;6.55;;;;;;;2.95;100.00;95489.56;5060126;28;24443;-71
2022/11/28 03:16:14;;;;;;;8.18;6.90;;;;;;;3.12;100.00;95481.25;5061138;28;24438;-71
2022/11/28 03:18:48;;;;;;;6.85;6.15;;;;;;;3.10;100.00;95481.28;5057760;28;24438;-71
2022/11/28 03:21:23;;;;;;;8.50;6.32;;;;;;;3.09;100.00;95483.94;5058759;28;24442;-71
2022/11/28 03:23:54;;;;;;;8.80;6.78;;;;;;;3.08;100.00;95488.22;5061058;28;24450;-71
2022/11/28 03:26:28;;;;;;;8.50;5.97;;;;;;;3.07;100.00;95478.84;5060892;28;25010;-71
2022/11/28 03:28:59;;;;;;;9.20;6.38;;;;;;;3.09;100.00;95489.88;5064257;28;24521;-71
2022/11/28 03:31:33;;;;;;;7.25;6.00;;;;;;;3.08;100.00;95492.50;5056538;28;24820;-71
2022/11/28 03:34:04;;;;;;;11.18;6.07;;;;;;;3.09;100.00;95492.44;5061914;28;24440;-70
2022/11/28 03:36:34;;;;;;;8.63;6.13;;;;;;;3.07;100.00;95494.19;5067633;28;24439;-70
2022/11/28 03:39:06;;;;;;;7.55;6.03;;;;;;;3.08;100.00;95488.22;5068295;28;24441;-70
2022/11/28 03:41:38;;;;;;;8.23;5.43;;;;;;;3.15;100.00;95488.78;5056861;28;24438;-71
2022/11/28 03:44:10;;;;;;;6.95;5.78;;;;;;;3.14;100.00;95487.97;5064844;28;24434;-70
2022/11/28 03:46:41;;;;;;;7.38;6.00;;;;;;;3.15;100.00;95484.53;5060470;28;24902;-70
2022/11/28 03:49:11;;;;;;;8.98;5.90;;;;;;;3.15;100.00;95481.13;5067669;28;24458;-71
2022/11/28 03:51:42;;;;;;;6.50;5.35;;;;;;;3.10;100.00;95483.84;5057955;28;24438;-71
2022/11/28 03:54:14;;;;;;;6.28;5.47;;;;;;;3.08;100.00;95484.81;5067984;28;24423;-70
2022/11/28 03:56:48;;;;;;;8.45;6.03;;;;;;;3.00;100.00;95469.75;5065056;28;24438;-70
2022/11/28 03:59:18;;;;;;;8.75;5.68;;;;;;;3.00;100.00;95472.28;5062056;28;24427;-70
2022/11/28 04:01:54;;;;;;;11.07;7.95;;;;;;;2.93;100.00;95463.22;5058156;28;24996;-70
2022/11/28 04:04:30;;;;;;;15.05;10.00;;;;;;;2.93;100.00;95468.34;5063563;28;24440;-71
2022/11/28 04:07:02;;;;;;;15.95;11.70;;;;;;;3.03;100.00;95458.56;5067244;28;24441;-71
2022/11/28 04:09:39;;;;;;;12.57;8.90;;;;;;;2.92;100.00;95462.34;5064977;28;24458;-71
2022/11/28 04:12:12;;;;;;;11.77;7.50;;;;;;;2.83;100.00;95462.72;5059552;28;24443;-71
2022/11/28 04:14:46;;;;;;;6.23;5.50;;;;;;;2.79;100.00;95461.16;5059836;28;24428;-71
2022/11/28 04:17:18;;;;;;;7.78;5.60;;;;;;;2.69;100.00;95459.84;5066582;28;24457;-71
2022/11/28 04:19:50;;;;;;;6.47;5.57;;;;;;;2.62;100.00;95466.88;5061581;28;24538;-71
2022/11/28 04:22:22;;;;;;;8.35;5.75;;;;;;;2.56;100.00;95462.03;5057486;28;24439;-70
2022/11/28 04:24:53;;;;;;;8.27;6.00;;;;;;;2.51;100.00;95461.34;5061856;28;24449;-71
2022/11/28 04:27:23;;;;;;;7.47;5.57;;;;;;;2.53;100.00;95458.75;5065864;28;24513;-70
2022/11/28 04:29:56;;;;;;;6.15;5.50;;;;;;;2.66;100.00;95450.53;5056252;28;24462;-71
2022/11/28 04:32:26;;;;;;;7.30;5.40;;;;;;;2.75;100.00;95451.13;5063042;28;24797;-70
2022/11/28 04:34:59;;;;;;;9.32;7.80;;;;;;;2.72;100.00;95454.63;5062635;28;25026;-70
2022/11/28 04:37:28;;;;;;;7.72;5.95;;;;;;;2.66;100.00;95453.09;5067711;28;25010;-71
2022/11/28 04:39:56;;;;;;;6.20;5.47;;;;;;;2.58;100.00;95457.66;5059925;28;24433;-70
2022/11/28 04:42:27;;;;;;;7.10;5.85;;;;;;;2.59;100.00;95466.16;5064722;28;24803;-70
2022/11/28 04:44:58;;;;;;;5.78;5.07;;;;;;;2.56;100.00;95464.56;5063117;28;24465;-70
2022/11/28 04:47:25;;;;;;;6.10;4.87;;;;;;;2.64;100.00;95454.91;5061348;28;24523;-70
2022/11/28 04:49:53;;;;;;;6.47;5.15;;;;;;;2.75;100.00;95448.56;5057424;28;24458;-70
2022/11/28 04:52:25;;;;;;;6.13;5.03;;;;;;;2.87;100.00;95448.09;5058891;28;24466;-71
2022/11/28 04:54:57;;;;;;;6.53;5.30;;;;;;;2.66;100.00;95460.78;5066926;28;24442;-71
2022/11/28 04:57:28;;;;;;;6.00;5.40;;;;;;;2.58;100.00;95473.00;5069150;28;24442;-71
2022/11/28 04:59:56;;;;;;;6.03;4.57;;;;;;;2.64;100.00;95461.75;5067368;28;24438;-70
2022/11/28 05:02:24;;;;;;;6.07;4.80;;;;;;;2.73;100.00;95460.56;5067802;28;24438;-70
2022/11/28 05:04:54;;;;;;;8.07;5.03;;;;;;;2.67;100.00;95462.47;5068944;28;24458;-70
2022/11/28 05:07:23;;;;;;;6.40;4.97;;;;;;;2.66;100.00;95460.78;5070899;28;24550;-71
2022/11/28 05:09:49;;;;;;;6.28;4.50;;;;;;;2.81;100.00;95461.09;5071120;28;24472;-71
2022/11/28 05:12:16;;;;;;;5.47;4.80;;;;;;;2.85;100.00;95448.13;5065515;28;24809;-71
2022/11/28 05:14:43;;;;;;;5.63;4.82;;;;;;;2.91;100.00;95449.63;5068190;28;24484;-72
2022/11/28 05:17:12;;;;;;;8.52;5.55;;;;;;;2.77;100.00;95457.81;5070212;28;24435;-72
2022/11/28 05:19:38;;;;;;;7.65;6.05;;;;;;;2.73;100.00;95452.88;5065844;28;24435;-72
2022/11/28 05:22:05;;;;;;;8.05;6.93;;;;;;;2.74;100.00;95459.66;5071136;28;24446;-72
2022/11/28 05:24:33;;;;;;;14.35;11.05;;;;;;;2.69;100.00;95457.28;5060882;28;24802;-71
2022/11/28 05:26:59;;;;;;;13.97;10.83;;;;;;;2.70;100.00;95461.50;5069175;28;24587;-71
2022/11/28 05:29:26;;;;;;;11.05;7.90;;;;;;;2.76;100.00;95461.28;5066065;28;24463;-71
2022/11/28 05:31:52;;;;;;;14.40;7.57;;;;;;;2.73;100.00;95463.94;5066234;28;24801;-71
2022/11/28 05:34:19;;;;;;;10.00;7.10;;;;;;;2.72;100.00;95462.28;5057478;28;24442;-71
2022/11/28 05:36:45;;;;;;;8.30;6.68;;;;;;;2.65;100.00;95477.00;5070797;28;24465;-71
2022/11/28 05:39:12;;;;;;;9.65;6.25;;;;;;;2.60;100.00;95478.09;5069421;28;25007;-71
2022/11/28 05:41:40;;;;;;;9.65;6.63;;;;;;;2.65;100.00;95474.44;5059103;28;24999;-71
2022/11/28 05:44:07;;;;;;;8.15;6.72;;;;;;;2.72;100.00;95471.69;5063541;28;24434;-71
2022/11/28 05:46:33;;;;;;;7.30;6.22;;;;;;;2.64;100.00;95467.69;5067709;28;24427;-71
2022/11/28 05:49:00;;;;;;;7.68;6.80;;;;;;;2.53;100.00;95468.97;5064369;28;25031;-71
2022/11/28 05:51:27;;;;;;;7.13;5.30;;;;;;;2.46;100.00;95468.34;5062782;28;24447;-69
2022/11/28 05:53:53;;;;;;;5.93;4.50;;;;;;;2.46;100.00;95459.84;5065397;28;24525;-71
2022/11/28 05:56:22;;;;;;;5.95;4.25;;;;;;;2.59;100.00;95453.38;5060662;28;25047;-71
2022/11/28 05:58:51;;;;;;;8.32;4.68;;;;;;;2.67;100.00;95452.22;5069516;28;24460;-71
2022/11/28 06:01:20;;;;;;;7.90;4.88;;;;;;;2.59;100.00;95449.09;5069494;28;24458;-70
2022/11/28 06:03:47;;;;;;;6.32;3.90;;;;;;;2.65;100.00;95463.41;5064987;28;24445;-71
2022/11/28 06:06:15;;;;;;;5.78;4.00;;;;;;;2.58;100.00;95459.41;5067952;28;24461;-70
2022/11/28 06:08:43;;;;;;;5.43;4.30;;;;;;;2.69;100.00;95454.72;5067791;28;24455;-70
2022/11/28 06:11:10;;;;;;;7.90;4.90;;;;;;;2.72;100.00;95456.34;5066936;28;24446;-71
2022/11/28 06:13:37;;;;;;;6.60;5.00;;;;;;;2.66;100.00;95459.94;5063864;28;24488;-71
2022/11/28 06:16:08;;;;;;;5.65;4.07;;;;;;;2.53;100.00;95457.00;5060853;28;24442;-70
2022/11/28 06:18:35;;;;;;;4.60;4.13;;;;;;;2.58;100.00;95452.56;5058831;28;24446;-71
2022/11/28 06:21:02;;;;;;;4.47;3.70;;;;;;;2.66;100.00;95454.81;5068278;28;24438;-72
2022/11/28 06:23:29;;;;;;;4.28;3.65;;;;;;;2.70;100.00;95455.53;5062693;28;24435;-72
2022/11/28 06:25:55;;;;;;;5.20;3.65;;;;;;;2.73;100.00;95445.22;5068699;28;24438;-72
2022/11/28 06:28:22;;;;;;;5.63;3.90;;;;;;;2.85;100.00;95440.47;5059225;28;24435;-73
2022/11/28 06:30:49;;;;;;;7.45;4.05;;;;;;;2.88;100.00;95439.50;5065942;28;24956;-74
2022/11/28 06:33:16;;;;;;;4.80;4.25;;;;;;;2.82;100.00;95444.88;5055674;28;24443;-72
2022/11/28 06:35:43;;;;;;;6.00;4.23;;;;;;;2.74;100.00;95446.88;5069390;28;24434;-72
2022/11/28 06:38:09;;;;;;;5.70;4.63;;;;;;;2.49;100.00;95455.47;5059485;28;24438;-73
2022/11/28 06:40:38;;;;;;;8.10;5.32;;;;;;;2.46;100.00;95455.56;5065523;28;24435;-71
2022/11/28 06:43:05;;;;;;;15.52;9.88;;;;;;;2.50;100.00;95459.69;5066126;28;25036;-71
2022/11/28 06:45:33;;;;;;;11.20;8.68;;;;;;;2.41;100.00;95473.63;5068210;28;24431;-72
2022/11/28 06:48:00;;;;;;;6.22;4.60;;;;;;;2.38;100.00;95480.56;5067039;28;24453;-72
2022/11/28 06:50:28;;;;;;;7.75;6.43;;;;;;;2.33;100.00;95477.31;5059514;28;24470;-73
2022/11/28 06:52:55;;;;;;;11.38;8.05;;;;;;;2.37;100.00;95482.28;5065267;28;24431;-71
2022/11/28 06:55:21;;;;;;;8.10;5.40;;;;;;;2.31;100.00;95489.34;5060203;28;24438;-71
2022/11/28 06:57:48;;;;;;;7.75;5.32;;;;;;;2.35;100.00;95490.91;5062957;28;24442;-70
2022/11/28 07:00:15;;;;;;;8.63;6.20;;;;;;;2.35;100.00;95483.22;5061845;28;24565;-71
2022/11/28 07:02:41;;;;;;;6.45;5.43;;;;;;;2.43;100.00;95486.34;5064321;28;24445;-72
2022/11/28 07:05:08;;;;;;;6.53;4.05;;;;;;;2.46;100.00;95488.78;5064198;28;24996;-71
2022/11/28 07:07:36;;;;;;;5.18;4.15;;;;;;;2.43;100.00;95486.34;5060622;28;24450;-72
2022/11/28 07:10:03;;;;;;;4.88;4.10;;;;;;;2.47;100.00;95485.34;5059316;28;24462;-71
2022/11/28 07:12:30;;;;;;;6.75;4.18;;;;;;;2.43;100.00;95486.34;5065005;28;24446;-71
2022/11/28 07:14:56;;;;;;;7.15;5.38;;;;;;;2.38;100.00;95481.41;5064874;28;24435;-72
2022/11/28 07:17:22;;;;;;;8.48;6.15;;;;;;;2.49;100.00;95483.56;5060394;28;24442;-71
2022/11/28 07:19:49;;;;;;;9.18;5.80;;;;;;;2.53;100.00;95479.19;5062393;28;24437;-71
2022/11/28 07:22:16;;;;;;;5.20;4.00;;;;;;;2.56;100.00;95485.03;5065243;28;24828;-72
2022/11/28 07:24:43;;;;;;;4.70;3.03;;;;;;;2.62;100.00;95484.78;5050734;28;24545;-71
2022/11/28 07:27:10;;;;;;;6.25;4.05;;;;;;;2.70;100.00;95497.28;5066937;28;24434;-72
2022/11/28 07:29:37;;;;;;;7.10;4.20;;;;;;;2.77;100.00;95498.75;5064496;28;25007;-72
2022/11/28 07:32:05;;;;;;;8.15;6.22;;;;;;;2.78;100.00;95491.91;5065191;28;24465;-75
2022/11/28 07:34:31;;;;;;;5.90;4.83;;;;;;;2.77;100.00;95495.34;5064224;28;24916;-73
2022/11/28 07:36:58;;;;;;;5.18;4.07;;;;;;;2.82;100.00;95486.63;5066813;28;24442;-72
2022/11/28 07:39:24;;;;;;;5.32;4.30;;;;;;;2.92;100.00;95487.09;5057850;28;24434;-72
2022/11/28 07:41:52;;;;;;;6.60;5.47;;;;;;;2.99;100.00;95490.28;5062254;28;24446;-73
2022/11/28 07:44:19;;;;;;;6.18;4.82;;;;;;;3.02;100.00;95487.59;5066469;28;24442;-72
2022/11/28 07:46:46;;;;;;;5.67;4.97;;;;;;;3.09;100.00;95496.72;5066039;28;26000;-73
2022/11/28 07:49:14;;;;;;;5.97;4.93;;;;;;;3.13;100.00;95493.16;5059797;28;24450;-71
2022/11/28 07:51:41;;;;;;;6.60;5.00;;;;;;;3.17;100.00;95494.69;5060248;28;24996;-72
2022/11/28 07:54:08;;;;;;;7.90;5.97;;;;;;;3.21;100.00;95490.28;5065686;28;24446;-72
2022/11/28 07:56:37;;;;;;;11.60;6.93;;;;;;;3.28;100.00;95484.06;5062597;28;24446;-72
2022/11/28 07:59:06;;;;;;;9.40;6.73;;;;;;;3.29;100.00;95493.38;5059430;28;25011;-72
2022/11/28 08:01:35;;;;;;;9.32;5.43;;;;;;;3.14;100.00;95487.13;5056579;28;24439;-73
2022/11/28 08:04:02;;;;;;;8.73;5.32;;;;;;;3.10;100.00;95503.50;5065136;28;24987;-72
2022/11/28 08:06:30;;;;;;;13.50;5.37;;;;;;;3.07;100.00;95504.44;5067680;28;24442;-72
2022/11/28 08:08:59;;;;;;;17.48;7.75;;;;;;;3.10;100.00;95501.75;5056772;28;25006;-71
2022/11/28 08:11:28;;;;;;;18.10;10.05;;;;;;;3.14;100.00;95503.31;5064426;28;24443;-72
2022/11/28 08:13:56;;;;;;;17.00;11.40;;;;;;;3.15;100.00;95504.16;5064617;28;24445;-72
2022/11/28 08:16:25;;;;;;;12.35;8.88;;;;;;;3.12;100.00;95501.72;5067810;28;24433;-72
2022/11/28 08:18:52;;;;;;;9.60;6.63;;;;;;;3.15;100.00;95504.16;5058972;28;24442;-71
2022/11/28 08:21:23;;;;;;;7.40;4.78;;;;;;;3.16;100.00;95500.72;5058452;28;24434;-72
2022/11/28 08:23:50;;;;;;;8.25;4.70;;;;;;;3.12;100.00;95501.72;5065460;28;24491;-72
2022/11/28 08:26:18;;;;;;;8.23;5.13;;;;;;;3.10;100.00;95509.44;5068026;28;24480;-73
2022/11/28 08:28:44;;;;;;;7.28;4.05;;;;;;;3.07;100.00;95506.16;5066186;28;24435;-72
2022/11/28 08:31:12;;;;;;;4.60;3.70;;;;;;;3.08;100.00;95505.28;5063451;28;24568;-72
2022/11/28 08:33:41;;;;;;;6.28;4.10;;;;;;;3.19;100.00;95500.59;5069494;28;24443;-72
2022/11/28 08:36:09;;;;;;;8.20;6.35;;;;;;;3.23;100.00;95512.38;5068379;28;24437;-72
2022/11/28 08:38:36;;;;;;;13.95;9.38;;;;;;;3.25;100.00;95509.75;5066036;28;24442;-71
2022/11/28 08:41:04;;;;;;;24.67;13.70;;;;;;;3.22;100.00;95505.59;5064746;28;24480;-71
2022/11/28 08:43:31;;;;;;;16.73;9.52;;;;;;;3.16;100.00;95500.72;5067726;28;25097;-70
2022/11/28 08:45:58;;;;;;;7.90;4.80;;;;;;;3.16;100.00;95490.47;5064705;28;24446;-71
2022/11/28 08:48:25;;;;;;;7.75;4.40;;;;;;;3.25;100.00;95489.28;5060826;28;24490;-70
2022/11/28 08:50:53;;;;;;;5.32;3.95;;;;;;;3.35;100.00;95485.47;5064616;28;24451;-70
2022/11/28 08:53:19;;;;;;;6.80;4.05;;;;;;;3.39;100.00;95480.19;5064114;28;24434;-76
2022/11/28 08:55:46;;;;;;;5.82;3.90;;;;;;;3.52;100.00;95495.91;5066208;28;24438;-71
2022/11/28 08:58:13;;;;;;;4.03;3.40;;;;;;;3.67;100.00;95485.91;5062385;28;24797;-71
2022/11/28 09:00:41;;;;;;;4.43;3.45;;;;;;;3.77;100.00;95495.72;5070936;28;24984;-72
2022/11/28 09:03:07;;;;;;;5.28;3.78;;;;;;;3.87;100.00;95494.47;5071035;28;24525;-71
2022/11/28 09:05:34;;;;;;;6.55;5.25;;;;;;;3.92;100.00;95501.97;5067816;28;24439;-71
2022/11/28 09:08:02;;;;;;;5.95;5.00;;;;;;;3.91;100.00;95507.16;5067741;28;24431;-71
2022/11/28 09:10:29;;;;;;;5.55;5.05;;;;;;;3.81;100.00;95509.25;5067973;28;24458;-71
2022/11/28 09:12:55;;;;;;;5.55;4.80;;;;;;;3.75;100.00;95509.53;5067242;28;24441;-71
2022/11/28 09:15:22;;;;;;;9.73;6.13;;;;;;;3.70;100.00;95508.84;5064131;28;24793;-71
2022/11/28 09:17:48;;;;;;;6.63;5.33;;;;;;;3.71;100.00;95508.81;5066311;28;24861;-70
2022/11/28 09:20:15;;;;;;;9.50;6.53;;;;;;;3.63;100.00;95509.13;5059610;28;24431;-73
2022/11/28 09:22:42;;;;;;;8.27;5.55;;;;;;;3.68;100.00;95513.22;5062443;28;24500;-73
2022/11/28 09:25:10;;;;;;;8.57;6.28;;;;;;;3.70;100.00;95513.97;5069316;28;24499;-71
2022/11/28 09:27:36;;;;;;;8.32;5.60;;;;;;;3.67;100.00;95520.06;5068955;28;24438;-71
2022/11/28 09:30:04;;;;;;;6.30;4.18;;;;;;;3.71;100.00;95519.06;5065780;28;24458;-70
2022/11/28 09:32:30;;;;;;;5.80;3.80;;;;;;;3.74;100.00;95516.34;5069055;28;24435;-70
2022/11/28 09:34:57;;;;;;;5.45;3.65;;;;;;;3.85;100.00;95511.63;5066995;28;25015;-71
2022/11/28 09:37:23;;;;;;;5.20;3.50;;;;;;;3.92;100.00;95507.09;5065912;28;24430;-70
2022/11/28 09:39:51;;;;;;;4.85;3.65;;;;;;;4.02;100.00;95508.38;5066190;28;24477;-70
2022/11/28 09:42:25;;;;;;;4.35;2.85;;;;;;;4.10;100.00;95508.06;5067706;28;24449;-70
2022/11/28 09:44:57;;;;;;;4.35;3.15;;;;;;;4.19;100.00;95511.97;5063305;28;24432;-70
2022/11/28 09:47:26;;;;;;;8.25;4.32;;;;;;;4.29;100.00;95513.25;5068757;28;24482;-70
2022/11/28 09:49:57;;;;;;;16.20;10.60;;;;;;;4.37;100.00;95516.31;5070501;28;24541;-70
2022/11/28 09:52:29;;;;;;;28.10;14.93;;;;;;;4.47;100.00;95514.22;5068965;28;24480;-70
2022/11/28 09:55:03;;;;;;;15.30;8.13;;;;;;;4.54;100.00;95516.44;5066735;28;25320;-70
2022/11/28 09:57:35;;;;;;;8.70;6.10;;;;;;;4.60;100.00;95510.22;5068838;28;24469;-71
2022/11/28 10:00:04;;;;;;;6.15;3.80;;;;;;;4.59;100.00;95508.53;5066735;28;24473;-70
2022/11/28 10:02:39;;;;;;;6.30;4.60;;;;;;;4.63;100.00;95509.25;5059688;28;24477;-70
2022/11/28 10:05:13;;;;;;;5.05;3.60;;;;;;;4.67;100.00;95508.19;5064189;28;24442;-70
2022/11/28 10:07:54;;;;;;;6.35;4.00;;;;;;;4.74;100.00;95507.88;5070122;28;24434;-70
2022/11/28 10:10:28;;;;;;;6.88;3.53;;;;;;;4.79;100.00;95500.81;5066075;28;24454;-70
2022/11/28 10:13:03;;;;;;;6.70;3.90;;;;;;;4.88;100.00;95503.88;5068756;28;24517;-70
2022/11/28 10:15:39;;;;;;;6.10;5.03;;;;;;;4.92;100.00;95495.97;5066578;28;24795;-72
2022/11/28 10:18:28;;;;;;;4.43;3.33;;;;;;;5.03;100.00;95505.75;5066502;28;25058;-70
2022/11/28 10:20:59;;;;;;;6.10;3.85;;;;;;;5.12;100.00;95501.91;5067335;28;24441;-70
2022/11/28 10:23:30;;;;;;;5.38;3.58;;;;;;;5.18;100.00;95496.50;5066989;28;24442;-70
2022/11/28 10:26:00;;;;;;;3.90;3.00;;;;;;;5.23;100.00;95500.53;5064417;28;24437;-70
2022/11/28 10:28:31;;;;;;;4.35;3.10;;;;;;;5.27;100.00;95493.53;5066350;28;24447;-70
2022/11/28 10:31:04;;;;;;;7.70;3.63;;;;;;;5.26;100.00;95491.84;5065428;28;24463;-72
2022/11/28 10:33:36;;;;;;;6.25;3.40;;;;;;;5.30;100.00;95491.66;5066468;28;24496;-71
2022/11/28 10:36:04;;;;;;;5.75;3.47;;;;;;;5.33;100.00;95480.38;5067271;28;24992;-71
2022/11/28 10:38:35;;;;;;;6.68;3.65;;;;;;;5.41;100.00;95483.44;5065539;28;24439;-71
2022/11/28 10:41:07;;;;;;;8.05;3.58;;;;;;;5.55;100.00;95480.22;5055796;28;24450;-71
2022/11/28 10:43:43;;;;;;;5.97;3.13;;;;;;;5.81;100.00;95478.97;5066060;28;24442;-71
2022/11/28 10:46:31;;;;;;;5.45;3.42;;;;;;;5.82;100.00;95481.47;5064216;28;24534;-70
2022/11/28 10:49:08;;;;;;;5.78;3.08;;;;;;;5.75;100.00;95466.44;5065804;28;24528;-70
2022/11/28 10:51:45;;;;;;;3.92;2.90;;;;;;;5.74;100.00;95475.03;5062299;28;25034;-70
2022/11/28 10:54:25;;;;;;;4.53;3.20;;;;;;;5.77;100.00;95478.28;5064651;28;24438;-70
2022/11/28 10:57:02;;;;;;;5.15;3.10;;;;;;;5.87;100.00;95481.25;5061064;28;24431;-70
2022/11/28 10:59:44;;;;;;;5.70;3.72;;;;;;;5.85;100.00;95477.91;5064690;28;24439;-70
2022/11/28 11:02:20;;;;;;;9.20;6.35;;;;;;;5.79;100.00;95476.47;5057573;28;24988;-70
2022/11/28 11:04:48;;;;;;;10.32;5.90;;;;;;;5.78;100.00;95472.25;5059381;28;24532;-70
2022/11/28 11:07:19;;;;;;;10.15;6.32;;;;;;;5.76;100.00;95473.22;5066331;28;24438;-71
2022/11/28 11:09:46;;;;;;;9.43;6.18;;;;;;;5.75;100.00;95474.97;5059054;28;24442;-70
2022/11/28 11:12:19;;;;;;;9.93;7.07;;;;;;;5.75;100.00;95474.13;5065949;28;24480;-71
2022/11/28 11:14:47;;;;;;;11.00;6.60;;;;;;;5.77;100.00;95480.00;5063079;28;24484;-70
2022/11/28 11:17:25;;;;;;;8.40;6.32;;;;;;;5.78;100.00;95476.53;5067370;28;24431;-72
2022/11/28 11:19:52;;;;;;;9.85;6.82;;;;;;;5.78;100.00;95467.13;5064941;28;24427;-72
2022/11/28 11:22:22;;;;;;;12.68;7.00;;;;;;;5.86;100.00;95468.44;5068001;28;24526;-70
2022/11/28 11:25:05;;;;;;;14.60;8.65;;;;;;;5.86;100.00;95466.72;5065266;28;24438;-70
2022/11/28 11:27:32;;;;;;;12.30;7.60;;;;;;;5.88;100.00;95467.47;5061169;28;25003;-70
2022/11/28 11:30:01;;;;;;;9.15;6.70;;;;;;;5.88;100.00;95477.75;5064552;28;24435;-70
2022/11/28 11:32:30;;;;;;;10.13;7.60;;;;;;;5.85;100.00;95462.47;5065215;28;24439;-73
2022/11/28 11:34:58;;;;;;;10.05;7.22;;;;;;;5.86;100.00;95461.59;5061077;28;24445;-71
2022/11/28 11:37:32;;;;;;;9.00;6.13;;;;;;;5.89;100.00;95460.59;5066092;28;24431;-71
2022/11/28 11:40:00;;;;;;;7.30;5.63;;;;;;;5.88;100.00;95461.50;5057479;28;20820;-70
2022/11/28 11:42:29;;;;;;;14.10;11.32;;;;;;;5.77;100.00;95462.03;5068068;28;21176;-71
2022/11/28 11:44:56;;;;;;;30.08;20.17;;;;;;;5.76;100.00;95458.63;5064782;28;24426;-71